sensor_id;sensor_type;location;lat;lon;timestamp;pressure;altitude;pressure_sealevel;temperature;humidity
40918;BME280;26644;50.248;19.032;2022-12-07T00:00:26;97624.94;;;1.24;87.26
40918;BME280;26644;50.248;19.032;2022-12-07T00:01:31;97621.19;;;1.25;87.40
40918;BME280;26644;50.248;19.032;2022-12-07T00:02:34;97622.25;;;1.24;87.33
40918;BME280;26644;50.248;19.032;2022-12-07T00:03:37;97623.53;;;1.22;87.23
40918;BME280;26644;50.248;19.032;2022-12-07T00:04:41;97581.28;;;0.92;87.31
40918;BME280;26644;50.248;19.032;2022-12-07T00:05:43;97628.59;;;1.18;87.35
40918;BME280;26644;50.248;19.032;2022-12-07T00:06:51;97602.31;;;1.02;87.23
40918;BME280;26644;50.248;19.032;2022-12-07T00:07:55;97624.84;;;1.19;87.70
40918;BME280;26644;50.248;19.032;2022-12-07T00:08:56;97624.03;;;1.19;87.73
40918;BME280;26644;50.248;19.032;2022-12-07T00:09:59;97612.75;;;1.10;87.58
40918;BME280;26644;50.248;19.032;2022-12-07T00:11:01;97479.41;;;0.28;87.41
40918;BME280;26644;50.248;19.032;2022-12-07T00:12:06;97623.78;;;1.20;87.87
40918;BME280;26644;50.248;19.032;2022-12-07T00:13:07;97621.66;;;1.22;87.85
40918;BME280;26644;50.248;19.032;2022-12-07T00:14:12;97609.34;;;1.15;87.54
40918;BME280;26644;50.248;19.032;2022-12-07T00:15:16;97606.28;;;1.11;87.70
40918;BME280;26644;50.248;19.032;2022-12-07T00:16:19;97627.91;;;1.23;87.55
40918;BME280;26644;50.248;19.032;2022-12-07T00:17:24;97621.66;;;1.22;87.36
40918;BME280;26644;50.248;19.032;2022-12-07T00:18:25;97627.91;;;1.23;87.89
40918;BME280;26644;50.248;19.032;2022-12-07T00:19:28;97616.84;;;1.24;87.77
40918;BME280;26644;50.248;19.032;2022-12-07T00:20:29;97618.38;;;1.20;87.71
40918;BME280;26644;50.248;19.032;2022-12-07T00:21:34;97618.94;;;1.22;87.64
40918;BME280;26644;50.248;19.032;2022-12-07T00:22:38;97616.03;;;1.24;87.67
40918;BME280;26644;50.248;19.032;2022-12-07T00:23:42;97613.06;;;1.25;87.56
40918;BME280;26644;50.248;19.032;2022-12-07T00:24:45;97618.47;;;1.25;87.46
40918;BME280;26644;50.248;19.032;2022-12-07T00:25:47;97619.28;;;1.26;87.42
40918;BME280;26644;50.248;19.032;2022-12-07T00:26:50;97603.69;;;1.16;87.58
40918;BME280;26644;50.248;19.032;2022-12-07T00:27:53;97616.03;;;1.24;87.54
40918;BME280;26644;50.248;19.032;2022-12-07T00:28:59;97611.66;;;1.23;87.34
40918;BME280;26644;50.248;19.032;2022-12-07T00:30:04;97606.50;;;1.21;87.82
40918;BME280;26644;50.248;19.032;2022-12-07T00:31:08;97597.34;;;1.10;87.33
40918;BME280;26644;50.248;19.032;2022-12-07T00:32:12;97595.22;;;1.13;87.72
40918;BME280;26644;50.248;19.032;2022-12-07T00:33:14;97600.38;;;1.14;87.56
40918;BME280;26644;50.248;19.032;2022-12-07T00:34:19;97594.41;;;1.12;87.79
40918;BME280;26644;50.248;19.032;2022-12-07T00:35:23;97589.16;;;1.05;87.52
40918;BME280;26644;50.248;19.032;2022-12-07T00:36:25;97541.34;;;0.82;87.78
40918;BME280;26644;50.248;19.032;2022-12-07T00:37:28;97611.44;;;1.24;87.50
40918;BME280;26644;50.248;19.032;2022-12-07T00:38:33;97606.81;;;1.25;87.84
40918;BME280;26644;50.248;19.032;2022-12-07T00:39:37;97545.94;;;0.82;87.46
40918;BME280;26644;50.248;19.032;2022-12-07T00:40:38;97602.16;;;1.20;87.56
40918;BME280;26644;50.248;19.032;2022-12-07T00:41:41;97543.00;;;0.83;87.40
40918;BME280;26644;50.248;19.032;2022-12-07T00:42:42;97595.09;;;1.19;87.52
40918;BME280;26644;50.248;19.032;2022-12-07T00:43:47;97606.59;;;1.26;87.62
40918;BME280;26644;50.248;19.032;2022-12-07T00:44:49;97600.13;;;1.27;87.29
40918;BME280;26644;50.248;19.032;2022-12-07T00:45:53;97611.53;;;1.30;87.72
40918;BME280;26644;50.248;19.032;2022-12-07T00:46:55;97607.41;;;1.27;87.11
40918;BME280;26644;50.248;19.032;2022-12-07T00:47:57;97584.28;;;1.19;87.28
40918;BME280;26644;50.248;19.032;2022-12-07T00:48:59;97600.13;;;1.27;87.36
40918;BME280;26644;50.248;19.032;2022-12-07T00:50:02;97604.22;;;1.30;87.40
40918;BME280;26644;50.248;19.032;2022-12-07T00:51:04;97606.13;;;1.30;87.54
40918;BME280;26644;50.248;19.032;2022-12-07T00:52:07;97605.53;;;1.27;87.20
40918;BME280;26644;50.248;19.032;2022-12-07T00:53:09;97607.53;;;1.32;87.57
40918;BME280;26644;50.248;19.032;2022-12-07T00:54:13;97607.53;;;1.32;87.48
40918;BME280;26644;50.248;19.032;2022-12-07T00:55:16;97591.19;;;1.27;87.41
40918;BME280;26644;50.248;19.032;2022-12-07T00:56:22;97588.75;;;1.25;87.20
40918;BME280;26644;50.248;19.032;2022-12-07T00:57:26;97589.78;;;1.24;87.71
40918;BME280;26644;50.248;19.032;2022-12-07T00:58:27;97605.63;;;1.33;87.53
40918;BME280;26644;50.248;19.032;2022-12-07T00:59:30;97581.56;;;1.19;87.51
40918;BME280;26644;50.248;19.032;2022-12-07T01:00:33;97582.97;;;1.22;87.50
40918;BME280;26644;50.248;19.032;2022-12-07T01:01:37;97595.63;;;1.33;87.73
40918;BME280;26644;50.248;19.032;2022-12-07T01:02:39;97601.63;;;1.35;87.32
40918;BME280;26644;50.248;19.032;2022-12-07T01:03:41;97593.03;;;1.38;87.57
40918;BME280;26644;50.248;19.032;2022-12-07T01:04:44;97589.75;;;1.36;87.67
40918;BME280;26644;50.248;19.032;2022-12-07T01:05:50;97598.44;;;1.38;87.26
40918;BME280;26644;50.248;19.032;2022-12-07T01:06:53;97583.19;;;1.32;87.46
40918;BME280;26644;50.248;19.032;2022-12-07T01:07:55;97595.84;;;1.43;87.62
40918;BME280;26644;50.248;19.032;2022-12-07T01:08:57;97598.28;;;1.45;87.53
40918;BME280;26644;50.248;19.032;2022-12-07T01:10:01;97579.66;;;1.32;87.11
40918;BME280;26644;50.248;19.032;2022-12-07T01:11:05;97580.00;;;1.35;87.37
40918;BME280;26644;50.248;19.032;2022-12-07T01:12:09;97594.53;;;1.46;87.53
40918;BME280;26644;50.248;19.032;2022-12-07T01:13:11;97592.88;;;1.45;87.30
40918;BME280;26644;50.248;19.032;2022-12-07T01:14:13;97590.78;;;1.47;87.30
40918;BME280;26644;50.248;19.032;2022-12-07T01:15:15;97587.81;;;1.49;87.62
40918;BME280;26644;50.248;19.032;2022-12-07T01:16:20;97580.34;;;1.39;87.35
40918;BME280;26644;50.248;19.032;2022-12-07T01:17:23;97592.97;;;1.50;86.98
40918;BME280;26644;50.248;19.032;2022-12-07T01:18:26;97576.34;;;1.41;87.35
40918;BME280;26644;50.248;19.032;2022-12-07T01:19:28;97568.78;;;1.43;87.63
40918;BME280;26644;50.248;19.032;2022-12-07T01:20:31;97588.50;;;1.56;87.11
40918;BME280;26644;50.248;19.032;2022-12-07T01:21:34;97588.25;;;1.57;86.93
40918;BME280;26644;50.248;19.032;2022-12-07T01:22:39;97565.63;;;1.47;87.58
40918;BME280;26644;50.248;19.032;2022-12-07T01:23:42;97561.50;;;1.44;87.03
40918;BME280;26644;50.248;19.032;2022-12-07T01:24:45;97580.16;;;1.57;87.38
40918;BME280;26644;50.248;19.032;2022-12-07T01:25:55;97546.22;;;1.38;87.26
40918;BME280;26644;50.248;19.032;2022-12-07T01:26:57;97538.72;;;1.40;86.91
40918;BME280;26644;50.248;19.032;2022-12-07T01:28:00;97574.00;;;1.62;86.82
40918;BME280;26644;50.248;19.032;2022-12-07T01:29:02;97543.38;;;1.44;87.00
40918;BME280;26644;50.248;19.032;2022-12-07T01:30:06;97581.50;;;1.72;87.10
40918;BME280;26644;50.248;19.032;2022-12-07T01:31:11;97576.31;;;1.70;86.63
40918;BME280;26644;50.248;19.032;2022-12-07T01:32:15;97562.38;;;1.62;86.84
40918;BME280;26644;50.248;19.032;2022-12-07T01:33:17;97580.66;;;1.71;86.92
40918;BME280;26644;50.248;19.032;2022-12-07T01:34:19;97576.00;;;1.67;87.11
40918;BME280;26644;50.248;19.032;2022-12-07T01:35:21;97555.81;;;1.57;86.57
40918;BME280;26644;50.248;19.032;2022-12-07T01:36:26;97561.88;;;1.65;86.43
40918;BME280;26644;50.248;19.032;2022-12-07T01:37:34;97576.09;;;1.72;86.85
40918;BME280;26644;50.248;19.032;2022-12-07T01:38:37;97578.28;;;1.75;87.00
40918;BME280;26644;50.248;19.032;2022-12-07T01:39:39;97578.88;;;1.77;87.15
40918;BME280;26644;50.248;19.032;2022-12-07T01:40:42;97581.91;;;1.81;87.05
40918;BME280;26644;50.248;19.032;2022-12-07T01:41:46;97577.91;;;1.83;87.00
40918;BME280;26644;50.248;19.032;2022-12-07T01:42:48;97584.72;;;1.86;86.81
40918;BME280;26644;50.248;19.032;2022-12-07T01:44:14;97581.50;;;1.89;86.98
40918;BME280;26644;50.248;19.032;2022-12-07T01:45:38;97578.00;;;1.88;86.71
40918;BME280;26644;50.248;19.032;2022-12-07T01:46:42;97570.13;;;1.87;86.45
40918;BME280;26644;50.248;19.032;2022-12-07T01:47:51;97587.25;;;1.92;86.65
40918;BME280;26644;50.248;19.032;2022-12-07T01:48:56;97445.38;;;1.08;86.35
40918;BME280;26644;50.248;19.032;2022-12-07T01:49:58;97577.81;;;1.95;86.16
40918;BME280;26644;50.248;19.032;2022-12-07T01:51:03;97546.16;;;1.79;86.11
40918;BME280;26644;50.248;19.032;2022-12-07T01:52:15;97577.13;;;2.00;86.38
40918;BME280;26644;50.248;19.032;2022-12-07T01:53:26;97577.41;;;2.03;86.49
40918;BME280;26644;50.248;19.032;2022-12-07T01:54:33;97530.41;;;1.75;86.29
40918;BME280;26644;50.248;19.032;2022-12-07T01:55:41;97582.13;;;2.08;85.72
40918;BME280;26644;50.248;19.032;2022-12-07T01:56:52;97574.00;;;2.08;86.02
40918;BME280;26644;50.248;19.032;2022-12-07T01:57:58;97581.88;;;2.09;86.29
40918;BME280;26644;50.248;19.032;2022-12-07T01:59:01;97577.03;;;2.12;85.78
40918;BME280;26644;50.248;19.032;2022-12-07T02:00:06;97572.44;;;2.12;85.68
40918;BME280;26644;50.248;19.032;2022-12-07T02:01:15;97564.13;;;2.02;85.62
40918;BME280;26644;50.248;19.032;2022-12-07T02:02:22;97574.34;;;2.12;85.44
40918;BME280;26644;50.248;19.032;2022-12-07T02:03:31;97577.59;;;2.14;85.55
40918;BME280;26644;50.248;19.032;2022-12-07T02:04:37;97576.78;;;2.13;85.35
40918;BME280;26644;50.248;19.032;2022-12-07T02:05:41;97572.69;;;2.10;85.69
40918;BME280;26644;50.248;19.032;2022-12-07T02:06:46;97580.91;;;2.16;85.55
40918;BME280;26644;50.248;19.032;2022-12-07T02:07:49;97565.88;;;2.08;85.67
40918;BME280;26644;50.248;19.032;2022-12-07T02:08:55;97579.00;;;2.16;85.40
40918;BME280;26644;50.248;19.032;2022-12-07T02:10:12;97581.69;;;2.16;85.72
40918;BME280;26644;50.248;19.032;2022-12-07T02:11:15;97577.94;;;2.17;85.28
40918;BME280;26644;50.248;19.032;2022-12-07T02:12:21;97575.22;;;2.17;85.64
40918;BME280;26644;50.248;19.032;2022-12-07T02:13:29;97579.00;;;2.16;85.53
40918;BME280;26644;50.248;19.032;2022-12-07T02:14:34;97576.53;;;2.15;85.18
40918;BME280;26644;50.248;19.032;2022-12-07T02:15:49;97571.38;;;2.13;85.65
40918;BME280;26644;50.248;19.032;2022-12-07T02:17:10;97576.78;;;2.13;85.77
40918;BME280;26644;50.248;19.032;2022-12-07T02:18:27;97511.94;;;1.72;85.62
40918;BME280;26644;50.248;19.032;2022-12-07T02:20:11;97575.72;;;2.14;85.48
40918;BME280;26644;50.248;19.032;2022-12-07T02:21:38;97571.94;;;2.15;86.06
40918;BME280;26644;50.248;19.032;2022-12-07T02:24:52;97567.00;;;2.12;85.46
40918;BME280;26644;50.248;19.032;2022-12-07T02:26:29;97575.22;;;2.17;86.02
40918;BME280;26644;50.248;19.032;2022-12-07T02:27:56;97573.91;;;2.20;85.77
40918;BME280;26644;50.248;19.032;2022-12-07T02:29:17;97562.91;;;2.09;85.74
40918;BME280;26644;50.248;19.032;2022-12-07T02:30:30;97575.56;;;2.21;85.81
40918;BME280;26644;50.248;19.032;2022-12-07T02:31:38;97577.19;;;2.22;85.53
40918;BME280;26644;50.248;19.032;2022-12-07T02:32:56;97579.09;;;2.21;85.51
40918;BME280;26644;50.248;19.032;2022-12-07T02:34:09;97579.34;;;2.20;85.02
40918;BME280;26644;50.248;19.032;2022-12-07T02:35:20;97550.13;;;2.05;85.30
40918;BME280;26644;50.248;19.032;2022-12-07T02:36:32;97577.44;;;2.20;85.41
40918;BME280;26644;50.248;19.032;2022-12-07T02:37:51;97572.28;;;2.19;85.23
40918;BME280;26644;50.248;19.032;2022-12-07T02:39:08;97573.91;;;2.20;85.66
40918;BME280;26644;50.248;19.032;2022-12-07T02:40:25;97582.03;;;2.20;85.32
40918;BME280;26644;50.248;19.032;2022-12-07T02:41:37;97578.50;;;2.19;85.30
40918;BME280;26644;50.248;19.032;2022-12-07T02:42:55;97550.69;;;2.07;85.53
40918;BME280;26644;50.248;19.032;2022-12-07T02:44:08;97574.47;;;2.22;85.07
40918;BME280;26644;50.248;19.032;2022-12-07T02:45:18;97573.41;;;2.23;85.14
40918;BME280;26644;50.248;19.032;2022-12-07T02:46:28;97574.81;;;2.25;85.65
40918;BME280;26644;50.248;19.032;2022-12-07T02:47:34;97563.16;;;2.25;85.06
40918;BME280;26644;50.248;19.032;2022-12-07T02:48:42;97576.13;;;2.23;85.38
40918;BME280;26644;50.248;19.032;2022-12-07T02:49:45;97574.25;;;2.23;85.08
40918;BME280;26644;50.248;19.032;2022-12-07T02:50:48;97564.72;;;2.21;85.17
40918;BME280;26644;50.248;19.032;2022-12-07T02:51:52;97565.78;;;2.20;85.27
40918;BME280;26644;50.248;19.032;2022-12-07T02:52:55;97554.97;;;2.20;85.03
40918;BME280;26644;50.248;19.032;2022-12-07T02:53:59;97555.53;;;2.22;84.85
40918;BME280;26644;50.248;19.032;2022-12-07T02:55:04;97553.56;;;2.17;84.88
40918;BME280;26644;50.248;19.032;2022-12-07T02:56:16;97557.66;;;2.20;84.85
40918;BME280;26644;50.248;19.032;2022-12-07T02:57:44;97543.47;;;2.13;84.94
40918;BME280;26644;50.248;19.032;2022-12-07T02:59:20;97559.53;;;2.19;85.32
40918;BME280;26644;50.248;19.032;2022-12-07T03:00:49;97552.25;;;2.20;85.00
40918;BME280;26644;50.248;19.032;2022-12-07T03:02:11;97523.13;;;1.93;84.50
40918;BME280;26644;50.248;19.032;2022-12-07T03:03:23;97560.84;;;2.17;84.85
40918;BME280;26644;50.248;19.032;2022-12-07T03:04:37;97560.13;;;2.21;85.20
40918;BME280;26644;50.248;19.032;2022-12-07T03:06:05;97557.66;;;2.20;84.90
40918;BME280;26644;50.248;19.032;2022-12-07T03:07:24;97555.44;;;2.17;84.83
40918;BME280;26644;50.248;19.032;2022-12-07T03:08:46;97552.00;;;2.21;85.42
40918;BME280;26644;50.248;19.032;2022-12-07T03:10:03;97551.19;;;2.21;85.10
40918;BME280;26644;50.248;19.032;2022-12-07T03:11:16;97515.91;;;1.99;84.81
40918;BME280;26644;50.248;19.032;2022-12-07T03:12:29;97550.34;;;2.20;84.83
40918;BME280;26644;50.248;19.032;2022-12-07T03:13:45;97553.31;;;2.19;84.74
40918;BME280;26644;50.248;19.032;2022-12-07T03:15:00;97550.84;;;2.17;85.00
40918;BME280;26644;50.248;19.032;2022-12-07T03:16:12;97551.91;;;2.16;84.79
40918;BME280;26644;50.248;19.032;2022-12-07T03:17:22;97554.88;;;2.15;85.05
40918;BME280;26644;50.248;19.032;2022-12-07T03:18:32;97563.25;;;2.13;84.65
40918;BME280;26644;50.248;19.032;2022-12-07T03:19:41;97548.78;;;2.07;84.67
40918;BME280;26644;50.248;19.032;2022-12-07T03:20:51;97553.13;;;2.08;85.10
40918;BME280;26644;50.248;19.032;2022-12-07T03:22:03;97561.59;;;2.12;85.14
40918;BME280;26644;50.248;19.032;2022-12-07T03:23:10;97543.88;;;2.04;85.35
40918;BME280;26644;50.248;19.032;2022-12-07T03:24:19;97551.84;;;2.11;84.86
40918;BME280;26644;50.248;19.032;2022-12-07T03:25:26;97511.53;;;1.81;84.86
40918;BME280;26644;50.248;19.032;2022-12-07T03:26:35;97538.97;;;2.01;84.84
40918;BME280;26644;50.248;19.032;2022-12-07T03:27:46;97553.13;;;2.08;85.04
40918;BME280;26644;50.248;19.032;2022-12-07T03:29:02;97510.47;;;1.82;84.74
40918;BME280;26644;50.248;19.032;2022-12-07T03:30:16;97553.41;;;2.07;85.03
40918;BME280;26644;50.248;19.032;2022-12-07T03:31:23;97551.50;;;2.07;85.07
40918;BME280;26644;50.248;19.032;2022-12-07T03:32:36;97552.34;;;2.08;84.77
40918;BME280;26644;50.248;19.032;2022-12-07T03:33:49;97549.63;;;2.08;85.55
40918;BME280;26644;50.248;19.032;2022-12-07T03:35:05;97553.13;;;2.08;85.25
40918;BME280;26644;50.248;19.032;2022-12-07T03:36:20;97555.28;;;2.06;85.38
40918;BME280;26644;50.248;19.032;2022-12-07T03:37:34;97529.84;;;1.90;85.23
40918;BME280;26644;50.248;19.032;2022-12-07T03:38:48;97559.63;;;2.07;85.13
40918;BME280;26644;50.248;19.032;2022-12-07T03:40:02;97555.03;;;2.08;85.30
40918;BME280;26644;50.248;19.032;2022-12-07T03:41:16;97527.47;;;1.94;85.11
40918;BME280;26644;50.248;19.032;2022-12-07T03:42:23;97546.06;;;2.07;85.08
40918;BME280;26644;50.248;19.032;2022-12-07T03:43:28;97549.88;;;2.06;85.18
40918;BME280;26644;50.248;19.032;2022-12-07T03:44:31;97547.41;;;2.05;84.81
40918;BME280;26644;50.248;19.032;2022-12-07T03:45:41;97547.09;;;2.01;84.89
40918;BME280;26644;50.248;19.032;2022-12-07T03:46:52;97522.94;;;1.83;85.02
40918;BME280;26644;50.248;19.032;2022-12-07T03:48:09;97539.94;;;1.95;85.16
40918;BME280;26644;50.248;19.032;2022-12-07T03:49:27;97515.31;;;1.80;85.46
40918;BME280;26644;50.248;19.032;2022-12-07T03:50:41;97546.41;;;1.94;85.66
40918;BME280;26644;50.248;19.032;2022-12-07T03:51:56;97546.41;;;1.94;85.54
40918;BME280;26644;50.248;19.032;2022-12-07T03:53:13;97534.13;;;1.86;85.37
40918;BME280;26644;50.248;19.032;2022-12-07T03:54:27;97547.00;;;1.96;85.88
40918;BME280;26644;50.248;19.032;2022-12-07T03:55:36;97499.38;;;1.66;85.62
40918;BME280;26644;50.248;19.032;2022-12-07T03:56:45;97548.38;;;1.99;85.47
40918;BME280;26644;50.248;19.032;2022-12-07T03:57:55;97507.59;;;1.71;85.34
40918;BME280;26644;50.248;19.032;2022-12-07T03:59:01;97539.44;;;1.98;85.15
40918;BME280;26644;50.248;19.032;2022-12-07T04:00:07;97510.13;;;1.78;85.39
40918;BME280;26644;50.248;19.032;2022-12-07T04:01:17;97544.84;;;1.98;85.08
40918;BME280;26644;50.248;19.032;2022-12-07T04:02:19;97542.63;;;1.95;85.29
40918;BME280;26644;50.248;19.032;2022-12-07T04:03:23;97543.94;;;1.92;85.07
40918;BME280;26644;50.248;19.032;2022-12-07T04:04:25;97545.84;;;1.92;85.33
40918;BME280;26644;50.248;19.032;2022-12-07T04:05:28;97527.53;;;1.82;85.47
40918;BME280;26644;50.248;19.032;2022-12-07T04:06:30;97544.09;;;1.86;85.27
40918;BME280;26644;50.248;19.032;2022-12-07T04:07:32;97546.91;;;1.91;85.12
40918;BME280;26644;50.248;19.032;2022-12-07T04:08:34;97547.16;;;1.89;85.33
40918;BME280;26644;50.248;19.032;2022-12-07T04:09:37;97553.63;;;1.88;85.33
40918;BME280;26644;50.248;19.032;2022-12-07T04:10:39;97547.66;;;1.86;85.11
40918;BME280;26644;50.248;19.032;2022-12-07T04:11:41;97550.59;;;1.85;85.05
40918;BME280;26644;50.248;19.032;2022-12-07T04:12:42;97538.59;;;1.81;85.29
40918;BME280;26644;50.248;19.032;2022-12-07T04:13:45;97542.97;;;1.82;85.24
40918;BME280;26644;50.248;19.032;2022-12-07T04:15:07;97538.59;;;1.81;85.20
40918;BME280;26644;50.248;19.032;2022-12-07T04:16:10;97539.09;;;1.77;85.16
40918;BME280;26644;50.248;19.032;2022-12-07T04:17:13;97538.28;;;1.77;85.06
40918;BME280;26644;50.248;19.032;2022-12-07T04:18:16;97541.22;;;1.75;85.50
40918;BME280;26644;50.248;19.032;2022-12-07T04:19:20;97536.47;;;1.66;85.41
40918;BME280;26644;50.248;19.032;2022-12-07T04:20:24;97541.72;;;1.72;85.29
40918;BME280;26644;50.248;19.032;2022-12-07T04:21:26;97538.19;;;1.72;85.49
40918;BME280;26644;50.248;19.032;2022-12-07T04:22:28;97541.72;;;1.72;85.81
40918;BME280;26644;50.248;19.032;2022-12-07T04:23:30;97528.34;;;1.66;85.88
40918;BME280;26644;50.248;19.032;2022-12-07T04:24:33;97540.16;;;1.76;85.74
40918;BME280;26644;50.248;19.032;2022-12-07T04:25:36;97538.28;;;1.77;85.92
40918;BME280;26644;50.248;19.032;2022-12-07T04:26:37;97515.63;;;1.66;85.40
40918;BME280;26644;50.248;19.032;2022-12-07T04:27:40;97536.94;;;1.80;85.68
40918;BME280;26644;50.248;19.032;2022-12-07T04:28:42;97527.38;;;1.72;85.55
40918;BME280;26644;50.248;19.032;2022-12-07T04:29:45;97542.16;;;1.81;85.36
40918;BME280;26644;50.248;19.032;2022-12-07T04:30:46;97539.19;;;1.83;85.25
40918;BME280;26644;50.248;19.032;2022-12-07T04:31:49;97540.25;;;1.82;85.33
40918;BME280;26644;50.248;19.032;2022-12-07T04:32:52;97540.25;;;1.82;85.22
40918;BME280;26644;50.248;19.032;2022-12-07T04:33:55;97537.53;;;1.82;85.37
40918;BME280;26644;50.248;19.032;2022-12-07T04:34:57;97488.88;;;1.53;84.88
40918;BME280;26644;50.248;19.032;2022-12-07T04:35:59;97540.75;;;1.79;84.57
40918;BME280;26644;50.248;19.032;2022-12-07T04:37:01;97541.56;;;1.79;85.01
40918;BME280;26644;50.248;19.032;2022-12-07T04:38:03;97542.63;;;1.78;85.16
40918;BME280;26644;50.248;19.032;2022-12-07T04:39:07;97541.00;;;1.77;85.04
40918;BME280;26644;50.248;19.032;2022-12-07T04:40:16;97545.56;;;1.76;85.14
40918;BME280;26644;50.248;19.032;2022-12-07T04:41:18;97542.88;;;1.76;84.82
40918;BME280;26644;50.248;19.032;2022-12-07T04:42:20;97537.69;;;1.75;84.62
40918;BME280;26644;50.248;19.032;2022-12-07T04:43:22;97542.06;;;1.76;84.69
40918;BME280;26644;50.248;19.032;2022-12-07T04:44:26;97534.75;;;1.76;85.15
40918;BME280;26644;50.248;19.032;2022-12-07T04:45:30;97545.81;;;1.75;84.99
40918;BME280;26644;50.248;19.032;2022-12-07T04:46:31;97536.06;;;1.74;84.65
40918;BME280;26644;50.248;19.032;2022-12-07T04:47:34;97532.78;;;1.72;85.02
40918;BME280;26644;50.248;19.032;2022-12-07T04:48:37;97537.09;;;1.73;84.88
40918;BME280;26644;50.248;19.032;2022-12-07T04:49:39;97545.22;;;1.73;85.14
40918;BME280;26644;50.248;19.032;2022-12-07T04:50:41;97546.88;;;1.74;84.73
40918;BME280;26644;50.248;19.032;2022-12-07T04:51:44;97540.06;;;1.71;84.60
40918;BME280;26644;50.248;19.032;2022-12-07T04:52:46;97548.44;;;1.70;84.69
40918;BME280;26644;50.248;19.032;2022-12-07T04:53:49;97524.06;;;1.53;84.48
40918;BME280;26644;50.248;19.032;2022-12-07T04:54:51;97548.94;;;1.67;85.10
40918;BME280;26644;50.248;19.032;2022-12-07T04:55:54;97544.31;;;1.67;84.84
40918;BME280;26644;50.248;19.032;2022-12-07T04:56:56;97523.00;;;1.54;85.03
40918;BME280;26644;50.248;19.032;2022-12-07T04:57:58;97535.41;;;1.67;85.49
40918;BME280;26644;50.248;19.032;2022-12-07T04:59:00;97533.09;;;1.58;85.04
40918;BME280;26644;50.248;19.032;2022-12-07T05:00:05;97537.28;;;1.66;85.34
40918;BME280;26644;50.248;19.032;2022-12-07T05:01:08;97530.94;;;1.60;85.33
40918;BME280;26644;50.248;19.032;2022-12-07T05:02:11;97468.50;;;1.16;85.36
40918;BME280;26644;50.248;19.032;2022-12-07T05:03:12;97538.56;;;1.64;85.13
40918;BME280;26644;50.248;19.032;2022-12-07T05:04:16;97500.25;;;1.38;85.15
40918;BME280;26644;50.248;19.032;2022-12-07T05:05:18;97536.13;;;1.62;84.99
40918;BME280;26644;50.248;19.032;2022-12-07T05:06:22;97540.97;;;1.60;85.29
40918;BME280;26644;50.248;19.032;2022-12-07T05:07:24;97539.88;;;1.61;85.10
40918;BME280;26644;50.248;19.032;2022-12-07T05:08:26;97545.28;;;1.61;84.94
40918;BME280;26644;50.248;19.032;2022-12-07T05:09:28;97544.47;;;1.60;85.22
40918;BME280;26644;50.248;19.032;2022-12-07T05:10:30;97538.72;;;1.57;85.08
40918;BME280;26644;50.248;19.032;2022-12-07T05:11:32;97545.78;;;1.58;84.70
40918;BME280;26644;50.248;19.032;2022-12-07T05:12:41;97540.63;;;1.56;84.91
40918;BME280;26644;50.248;19.032;2022-12-07T05:13:42;97547.69;;;1.57;85.22
40918;BME280;26644;50.248;19.032;2022-12-07T05:14:45;97546.84;;;1.57;85.40
40918;BME280;26644;50.248;19.032;2022-12-07T05:15:46;97468.66;;;1.09;85.42
40918;BME280;26644;50.248;19.032;2022-12-07T05:16:50;97548.50;;;1.58;85.28
40918;BME280;26644;50.248;19.032;2022-12-07T05:17:54;97553.09;;;1.57;85.14
40918;BME280;26644;50.248;19.032;2022-12-07T05:18:56;97549.34;;;1.58;85.15
40918;BME280;26644;50.248;19.032;2022-12-07T05:20:00;97547.44;;;1.59;85.56
40918;BME280;26644;50.248;19.032;2022-12-07T05:21:02;97537.31;;;1.54;85.23
40918;BME280;26644;50.248;19.032;2022-12-07T05:22:05;97546.38;;;1.60;85.46
40918;BME280;26644;50.248;19.032;2022-12-07T05:23:07;97548.25;;;1.59;85.35
40918;BME280;26644;50.248;19.032;2022-12-07T05:24:12;97544.72;;;1.59;85.31
40918;BME280;26644;50.248;19.032;2022-12-07T05:25:16;97548.50;;;1.58;84.85
40918;BME280;26644;50.248;19.032;2022-12-07T05:26:18;97546.84;;;1.57;85.14
40918;BME280;26644;50.248;19.032;2022-12-07T05:27:21;97546.28;;;1.55;85.50
40918;BME280;26644;50.248;19.032;2022-12-07T05:28:23;97541.94;;;1.54;85.33
40918;BME280;26644;50.248;19.032;2022-12-07T05:29:25;97550.38;;;1.57;85.20
40918;BME280;26644;50.248;19.032;2022-12-07T05:30:28;97518.78;;;1.46;84.92
40918;BME280;26644;50.248;19.032;2022-12-07T05:31:30;97558.25;;;1.59;85.48
40918;BME280;26644;50.248;19.032;2022-12-07T05:32:33;97543.09;;;1.58;84.83
40918;BME280;26644;50.248;19.032;2022-12-07T05:33:35;97548.50;;;1.58;85.09
40918;BME280;26644;50.248;19.032;2022-12-07T05:34:38;97546.84;;;1.57;85.23
40918;BME280;26644;50.248;19.032;2022-12-07T05:35:41;97550.38;;;1.57;85.10
40918;BME280;26644;50.248;19.032;2022-12-07T05:36:43;97546.03;;;1.56;84.93
40918;BME280;26644;50.248;19.032;2022-12-07T05:37:46;97547.94;;;1.56;85.04
40918;BME280;26644;50.248;19.032;2022-12-07T05:38:47;97547.59;;;1.52;85.10
40918;BME280;26644;50.248;19.032;2022-12-07T05:39:50;97541.34;;;1.52;84.96
40918;BME280;26644;50.248;19.032;2022-12-07T05:40:51;97550.84;;;1.54;85.26
40918;BME280;26644;50.248;19.032;2022-12-07T05:41:54;97548.41;;;1.53;84.96
40918;BME280;26644;50.248;19.032;2022-12-07T05:43:14;97532.56;;;1.44;85.06
40918;BME280;26644;50.248;19.032;2022-12-07T05:44:16;97543.56;;;1.55;85.38
40918;BME280;26644;50.248;19.032;2022-12-07T05:45:18;97548.16;;;1.54;85.18
40918;BME280;26644;50.248;19.032;2022-12-07T05:46:20;97545.69;;;1.53;85.58
40918;BME280;26644;50.248;19.032;2022-12-07T05:47:22;97546.53;;;1.53;85.08
40918;BME280;26644;50.248;19.032;2022-12-07T05:48:26;97543.22;;;1.51;85.34
40918;BME280;26644;50.248;19.032;2022-12-07T05:49:27;97540.78;;;1.50;85.18
40918;BME280;26644;50.248;19.032;2022-12-07T05:50:30;97548.09;;;1.49;85.50
40918;BME280;26644;50.248;19.032;2022-12-07T05:51:37;97537.38;;;1.42;85.30
40918;BME280;26644;50.248;19.032;2022-12-07T05:52:39;97539.38;;;1.47;85.20
40918;BME280;26644;50.248;19.032;2022-12-07T05:53:41;97545.59;;;1.48;85.52